Time;durP1;ratioP1;P1;durP2;ratioP2;P2;SDS_P1;SDS_P2;PMS_P1;PMS_P2;Temp;Humidity;BMP_temperature;BMP_pressure;BME280_temperature;BME280_humidity;BME280_pressure;Samples;Min_cycle;Max_cycle;Signal;HPM_P1;HPM_P2
2023/05/02 00:00:44;;;;;;;;;;;17.50;99.30;;;;;;5078570;28;19915;-68
2023/05/02 00:03:11;;;;;;;;;;;17.60;99.40;;;;;;5077745;28;20387;-69
2023/05/02 00:05:39;;;;;;;;;;;17.70;98.90;;;;;;5078863;28;19908;-68
2023/05/02 00:08:06;;;;;;;;;;;17.70;99.00;;;;;;5077466;28;20338;-68
2023/05/02 00:10:33;;;;;;;;;;;17.80;99.10;;;;;;5077014;28;19916;-68
2023/05/02 00:12:59;;;;;;;;;;;17.80;98.70;;;;;;5078077;28;20025;-69
2023/05/02 00:15:26;;;;;;;;;;;17.90;98.80;;;;;;5057853;28;19909;-68
2023/05/02 00:17:53;;;;;;;;;;;17.90;98.30;;;;;;5074578;28;19983;-68
2023/05/02 00:20:19;;;;;;;;;;;17.90;98.50;;;;;;5078285;28;19908;-68
2023/05/02 00:22:46;;;;;;;;;;;18.00;98.80;;;;;;5077319;28;20426;-68
2023/05/02 00:25:15;;;;;;;;;;;18.10;98.50;;;;;;5078036;28;19908;-68
2023/05/02 00:27:45;;;;;;;;;;;18.20;98.30;;;;;;5077235;28;19912;-68
2023/05/02 00:30:12;;;;;;;;;;;18.30;98.40;;;;;;5079831;28;19916;-67
2023/05/02 00:32:39;;;;;;;;;;;18.40;97.80;;;;;;5082211;28;19965;-68
2023/05/02 00:35:06;;;;;;;;;;;18.50;97.70;;;;;;5077350;28;19908;-69
2023/05/02 00:37:32;;;;;;;;;;;18.60;97.50;;;;;;5077314;28;19987;-69
2023/05/02 00:39:59;;;;;;;;;;;18.70;97.00;;;;;;5077932;28;20085;-67
2023/05/02 00:42:28;;;;;;;;;;;18.70;96.80;;;;;;5078339;28;20101;-68
2023/05/02 00:44:54;;;;;;;;;;;18.80;96.30;;;;;;5076261;28;19916;-68
2023/05/02 00:47:21;;;;;;;;;;;18.90;96.50;;;;;;5077590;28;19923;-68
2023/05/02 00:49:49;;;;;;;;;;;18.90;96.00;;;;;;5076869;28;19927;-69
2023/05/02 00:52:15;;;;;;;;;;;19.10;95.70;;;;;;5076089;28;19920;-66
2023/05/02 00:54:43;;;;;;;;;;;19.10;95.60;;;;;;5078537;28;19919;-67
2023/05/02 00:57:09;;;;;;;;;;;19.20;95.40;;;;;;5074379;28;19909;-68
2023/05/02 00:59:36;;;;;;;;;;;19.30;95.20;;;;;;5078536;28;20355;-68
2023/05/02 01:02:25;;;;;;;;;;;19.30;95.50;;;;;;5075935;28;20383;-67
2023/05/02 01:05:10;;;;;;;;;;;19.40;95.40;;;;;;5077950;28;19970;-68
2023/05/02 01:07:40;;;;;;;;;;;19.60;94.50;;;;;;5077808;28;19915;-69
2023/05/02 01:10:12;;;;;;;;;;;19.60;94.40;;;;;;5075592;28;19920;-69
2023/05/02 01:12:45;;;;;;;;;;;19.60;94.40;;;;;;5078565;28;19980;-68
2023/05/02 01:15:16;;;;;;;;;;;19.70;94.20;;;;;;5075048;28;19908;-70
2023/05/02 01:17:43;;;;;;;;;;;19.80;93.60;;;;;;5071334;28;19987;-68
2023/05/02 01:20:13;;;;;;;;;;;19.90;93.90;;;;;;5076104;28;20353;-68
2023/05/02 01:22:41;;;;;;;;;;;20.00;93.40;;;;;;5077718;28;20011;-69
2023/05/02 01:25:18;;;;;;;;;;;20.10;93.10;;;;;;5075817;28;19908;-70
2023/05/02 01:28:01;;;;;;;;;;;20.10;92.90;;;;;;5077885;28;19908;-68
2023/05/02 01:30:31;;;;;;;;;;;20.30;93.00;;;;;;5076077;28;19969;-69
2023/05/02 01:32:59;;;;;;;;;;;20.40;92.60;;;;;;5076003;28;19966;-68
2023/05/02 01:35:26;;;;;;;;;;;20.50;92.40;;;;;;5076196;28;19915;-68
2023/05/02 01:37:55;;;;;;;;;;;20.60;92.30;;;;;;5077210;28;19912;-68
2023/05/02 01:40:22;;;;;;;;;;;20.70;91.90;;;;;;5074627;28;20729;-67
2023/05/02 01:42:49;;;;;;;;;;;20.70;91.80;;;;;;5077394;28;19916;-68
2023/05/02 01:45:18;;;;;;;;;;;20.80;91.70;;;;;;5074081;28;19916;-68
2023/05/02 01:47:45;;;;;;;;;;;20.80;91.90;;;;;;5078188;28;20277;-67
2023/05/02 01:50:15;;;;;;;;;;;21.00;91.80;;;;;;5075519;28;19916;-69
2023/05/02 01:52:43;;;;;;;;;;;21.20;91.50;;;;;;5056928;28;19915;-69
2023/05/02 01:55:12;;;;;;;;;;;21.20;91.00;;;;;;5060301;28;19947;-68
2023/05/02 01:57:40;;;;;;;;;;;21.40;90.50;;;;;;5076668;28;19908;-68
2023/05/02 02:00:07;;;;;;;;;;;21.50;90.80;;;;;;5074935;28;19962;-69
2023/05/02 02:02:35;;;;;;;;;;;21.60;91.00;;;;;;5076489;28;19993;-69
2023/05/02 02:05:04;;;;;;;;;;;21.80;90.20;;;;;;5076307;28;20042;-68
2023/05/02 02:07:31;;;;;;;;;;;22.00;90.10;;;;;;5056783;28;19918;-68
2023/05/02 02:09:59;;;;;;;;;;;22.00;89.80;;;;;;5077703;28;19912;-67
2023/05/02 02:12:27;;;;;;;;;;;22.10;89.40;;;;;;5073465;28;19916;-69
2023/05/02 02:15:00;;;;;;;;;;;22.20;89.20;;;;;;5075798;28;19908;-67
2023/05/02 02:17:52;;;;;;;;;;;22.20;89.40;;;;;;5073079;28;20342;-67
2023/05/02 02:20:19;;;;;;;;;;;22.30;88.70;;;;;;5072324;28;20007;-67
2023/05/02 02:22:47;;;;;;;;;;;22.40;87.70;;;;;;5077362;28;19948;-68
2023/05/02 02:25:16;;;;;;;;;;;22.50;88.10;;;;;;5074829;28;19934;-67
2023/05/02 02:27:43;;;;;;;;;;;22.70;88.00;;;;;;5075750;28;19912;-67
2023/05/02 02:30:10;;;;;;;;;;;22.90;86.40;;;;;;5075401;28;20418;-69
2023/05/02 02:32:37;;;;;;;;;;;23.20;85.10;;;;;;5075180;28;19919;-67
2023/05/02 02:35:04;;;;;;;;;;;23.50;84.30;;;;;;5076389;28;19915;-69
2023/05/02 02:37:32;;;;;;;;;;;23.70;83.70;;;;;;5073389;28;20583;-66
2023/05/02 02:40:09;;;;;;;;;;;24.20;82.40;;;;;;5077949;28;19980;-67
2023/05/02 02:42:39;;;;;;;;;;;24.20;81.80;;;;;;5074501;28;19912;-67
2023/05/02 02:45:06;;;;;;;;;;;23.90;81.70;;;;;;5059679;28;19904;-68
2023/05/02 02:47:43;;;;;;;;;;;23.50;83.30;;;;;;5074586;28;20261;-65
2023/05/02 02:50:28;;;;;;;;;;;23.60;83.40;;;;;;5076344;28;19916;-66
2023/05/02 02:52:54;;;;;;;;;;;24.30;81.90;;;;;;5057413;28;20404;-65
2023/05/02 02:55:30;;;;;;;;;;;25.10;80.70;;;;;;5056800;28;20007;-65
2023/05/02 02:58:00;;;;;;;;;;;26.30;77.60;;;;;;5072692;28;20376;-65
2023/05/02 03:00:27;;;;;;;;;;;27.20;73.90;;;;;;5075075;28;19912;-67
2023/05/02 03:02:54;;;;;;;;;;;27.60;73.60;;;;;;5074680;28;19912;-67
2023/05/02 03:05:22;;;;;;;;;;;27.70;72.20;;;;;;5077913;28;19912;-66
2023/05/02 03:07:49;;;;;;;;;;;27.20;72.20;;;;;;5073254;28;19908;-69
2023/05/02 03:10:15;;;;;;;;;;;26.20;73.90;;;;;;5075958;28;19916;-67
2023/05/02 03:12:42;;;;;;;;;;;25.60;75.10;;;;;;5075175;28;19912;-67
2023/05/02 03:15:10;;;;;;;;;;;26.40;74.70;;;;;;5077023;28;19908;-68
2023/05/02 03:17:36;;;;;;;;;;;27.60;71.90;;;;;;5073926;28;19995;-68
2023/05/02 03:20:04;;;;;;;;;;;29.20;70.30;;;;;;5077253;28;19994;-68
2023/05/02 03:22:30;;;;;;;;;;;30.10;67.00;;;;;;5075042;28;20022;-69
2023/05/02 03:24:57;;;;;;;;;;;30.70;65.20;;;;;;5076221;28;19916;-67
2023/05/02 03:27:24;;;;;;;;;;;30.30;65.10;;;;;;5075273;28;19915;-66
2023/05/02 03:29:50;;;;;;;;;;;29.60;66.40;;;;;;5072096;28;19916;-67
2023/05/02 03:32:17;;;;;;;;;;;29.30;65.10;;;;;;5076120;28;19912;-67
2023/05/02 03:34:44;;;;;;;;;;;29.70;64.70;;;;;;5072361;28;19912;-68
2023/05/02 03:37:11;;;;;;;;;;;30.40;63.60;;;;;;5076925;28;20319;-65
2023/05/02 03:39:37;;;;;;;;;;;31.10;62.90;;;;;;5073123;28;20007;-66
2023/05/02 03:42:04;;;;;;;;;;;31.60;62.10;;;;;;5077323;28;20007;-65
2023/05/02 03:44:31;;;;;;;;;;;32.20;61.50;;;;;;5076588;28;19908;-66
2023/05/02 03:46:58;;;;;;;;;;;32.80;60.30;;;;;;5077671;28;19915;-66
2023/05/02 03:49:24;;;;;;;;;;;33.10;59.50;;;;;;5080117;28;19908;-68
2023/05/02 03:51:51;;;;;;;;;;;32.80;59.80;;;;;;5077567;28;19920;-68
2023/05/02 03:54:18;;;;;;;;;;;33.10;59.40;;;;;;5080874;28;19908;-68
2023/05/02 03:56:45;;;;;;;;;;;33.70;59.10;;;;;;5077200;28;19909;-67
2023/05/02 03:59:12;;;;;;;;;;;34.10;58.60;;;;;;5079836;28;19920;-67
2023/05/02 04:01:39;;;;;;;;;;;34.50;57.00;;;;;;5077492;28;19909;-68
2023/05/02 04:04:05;;;;;;;;;;;34.40;56.70;;;;;;5080426;28;19916;-68
2023/05/02 04:06:32;;;;;;;;;;;34.30;56.60;;;;;;5080008;28;19908;-66
2023/05/02 04:08:59;;;;;;;;;;;34.50;56.60;;;;;;5077857;28;20007;-65
2023/05/02 04:11:26;;;;;;;;;;;34.50;56.30;;;;;;5078972;28;19924;-68
2023/05/02 04:13:52;;;;;;;;;;;34.10;56.10;;;;;;5077955;28;19988;-69
2023/05/02 04:16:19;;;;;;;;;;;33.50;56.40;;;;;;5080123;28;20510;-68
2023/05/02 04:18:46;;;;;;;;;;;31.80;58.40;;;;;;5077466;28;19934;-66
2023/05/02 04:21:13;;;;;;;;;;;30.90;59.90;;;;;;5080301;28;19912;-66
2023/05/02 04:23:40;;;;;;;;;;;30.00;60.20;;;;;;5078096;28;19935;-68
2023/05/02 04:26:06;;;;;;;;;;;28.80;62.50;;;;;;5078448;28;20027;-68
2023/05/02 04:28:34;;;;;;;;;;;27.60;63.80;;;;;;5080450;28;19916;-68
2023/05/02 04:31:02;;;;;;;;;;;26.50;65.00;;;;;;5076290;28;19916;-69
2023/05/02 04:33:29;;;;;;;;;;;25.70;66.80;;;;;;5080054;28;19912;-66
2023/05/02 04:35:56;;;;;;;;;;;25.30;68.30;;;;;;5077034;28;19912;-67
2023/05/02 04:38:22;;;;;;;;;;;26.00;67.40;;;;;;5080131;28;19912;-67
2023/05/02 04:40:52;;;;;;;;;;;26.60;66.60;;;;;;5076622;28;20679;-68
2023/05/02 04:43:20;;;;;;;;;;;27.40;64.90;;;;;;5069979;28;19995;-66
2023/05/02 04:45:47;;;;;;;;;;;28.20;63.60;;;;;;5075808;28;19920;-68
2023/05/02 04:48:13;;;;;;;;;;;28.20;64.30;;;;;;5073853;28;19916;-67
2023/05/02 04:50:40;;;;;;;;;;;28.40;64.20;;;;;;5076951;28;20365;-67
2023/05/02 04:53:06;;;;;;;;;;;28.10;64.70;;;;;;5074245;28;19920;-67
2023/05/02 04:55:33;;;;;;;;;;;27.60;64.30;;;;;;5081797;28;20508;-68
2023/05/02 04:58:00;;;;;;;;;;;26.80;65.80;;;;;;5074745;28;19919;-67
2023/05/02 05:00:26;;;;;;;;;;;26.00;66.90;;;;;;5077663;28;19935;-66
2023/05/02 05:02:53;;;;;;;;;;;25.40;69.00;;;;;;5077445;28;20376;-67
2023/05/02 05:05:20;;;;;;;;;;;25.00;69.20;;;;;;5075046;28;19921;-68
2023/05/02 05:07:46;;;;;;;;;;;25.00;70.40;;;;;;5081113;28;20006;-67
2023/05/02 05:10:13;;;;;;;;;;;25.40;69.50;;;;;;5074423;28;19917;-67
2023/05/02 05:12:40;;;;;;;;;;;25.30;69.00;;;;;;5077141;28;19969;-67
2023/05/02 05:15:07;;;;;;;;;;;25.30;68.70;;;;;;5069710;28;20032;-66
2023/05/02 05:17:35;;;;;;;;;;;25.60;69.10;;;;;;5076197;28;19912;-68
2023/05/02 05:20:02;;;;;;;;;;;25.70;67.60;;;;;;5058556;28;19923;-67
2023/05/02 05:22:29;;;;;;;;;;;25.60;68.40;;;;;;5075318;28;20006;-67
2023/05/02 05:24:56;;;;;;;;;;;26.00;68.30;;;;;;5076513;28;19923;-68
2023/05/02 05:27:22;;;;;;;;;;;27.30;66.80;;;;;;5073041;28;20036;-66
2023/05/02 05:29:49;;;;;;;;;;;28.80;64.50;;;;;;5075424;28;19916;-66
2023/05/02 05:32:16;;;;;;;;;;;29.30;62.80;;;;;;5073565;28;19955;-67
2023/05/02 05:34:42;;;;;;;;;;;28.80;63.50;;;;;;5074741;28;19908;-68
2023/05/02 05:37:09;;;;;;;;;;;27.80;64.60;;;;;;5073822;28;19924;-68
2023/05/02 05:39:36;;;;;;;;;;;26.70;66.20;;;;;;5072894;28;19916;-68
2023/05/02 05:42:04;;;;;;;;;;;25.60;68.10;;;;;;5075554;28;19924;-68
2023/05/02 05:44:31;;;;;;;;;;;24.80;69.70;;;;;;5073488;28;19976;-67
2023/05/02 05:46:58;;;;;;;;;;;24.10;71.10;;;;;;5075523;28;19914;-67
2023/05/02 05:49:24;;;;;;;;;;;23.60;71.60;;;;;;5073573;28;20698;-66
2023/05/02 05:51:51;;;;;;;;;;;23.20;73.30;;;;;;5076316;28;19916;-68
2023/05/02 05:54:18;;;;;;;;;;;22.90;74.40;;;;;;5071929;28;20003;-68
2023/05/02 05:56:45;;;;;;;;;;;22.70;74.80;;;;;;5074110;28;20233;-66
2023/05/02 05:59:11;;;;;;;;;;;23.10;75.50;;;;;;5075551;28;20002;-67
2023/05/02 06:01:38;;;;;;;;;;;24.10;74.50;;;;;;5075287;28;19912;-68
2023/05/02 06:04:05;;;;;;;;;;;25.60;71.40;;;;;;5076678;28;19911;-66
2023/05/02 06:06:32;;;;;;;;;;;26.60;69.40;;;;;;5070729;28;19952;-68
2023/05/02 06:08:59;;;;;;;;;;;27.10;67.30;;;;;;5073487;28;19938;-68
2023/05/02 06:11:25;;;;;;;;;;;27.70;67.70;;;;;;5075595;28;19959;-67
2023/05/02 06:13:52;;;;;;;;;;;28.30;65.90;;;;;;5089715;28;19915;-68
2023/05/02 06:16:19;;;;;;;;;;;28.50;64.90;;;;;;5075615;28;19961;-66
2023/05/02 06:18:46;;;;;;;;;;;28.30;64.70;;;;;;5074097;28;19978;-68
2023/05/02 06:21:13;;;;;;;;;;;27.40;65.40;;;;;;5076193;28;19955;-67
2023/05/02 06:23:39;;;;;;;;;;;26.40;67.30;;;;;;5073238;28;19912;-67
2023/05/02 06:26:08;;;;;;;;;;;25.50;69.00;;;;;;5075693;28;20369;-67
2023/05/02 06:28:36;;;;;;;;;;;24.80;70.80;;;;;;5073772;28;19960;-67
2023/05/02 06:31:05;;;;;;;;;;;24.10;72.50;;;;;;5074763;28;19927;-66
2023/05/02 06:33:33;;;;;;;;;;;23.60;73.60;;;;;;5073074;28;20357;-67
2023/05/02 06:35:59;;;;;;;;;;;23.10;74.40;;;;;;5073764;28;19912;-65
2023/05/02 06:38:26;;;;;;;;;;;22.80;76.40;;;;;;5075781;28;20465;-65
2023/05/02 06:40:52;;;;;;;;;;;22.40;76.40;;;;;;5072855;28;19931;-66
2023/05/02 06:43:19;;;;;;;;;;;22.10;76.80;;;;;;5057131;28;20276;-65
2023/05/02 06:45:46;;;;;;;;;;;21.80;77.20;;;;;;5073763;28;19912;-69
2023/05/02 06:48:12;;;;;;;;;;;21.70;77.60;;;;;;5075115;28;19920;-66
2023/05/02 06:50:39;;;;;;;;;;;21.50;78.40;;;;;;5073113;28;20352;-66
2023/05/02 06:53:06;;;;;;;;;;;21.30;78.90;;;;;;5075280;28;19919;-67
2023/05/02 06:55:32;;;;;;;;;;;21.20;79.20;;;;;;5074270;28;19912;-65
2023/05/02 06:57:59;;;;;;;;;;;21.00;79.60;;;;;;5072837;28;19916;-66
2023/05/02 07:00:26;;;;;;;;;;;21.00;79.80;;;;;;5075683;28;19930;-67
2023/05/02 07:02:52;;;;;;;;;;;20.90;80.20;;;;;;5074143;28;20271;-67
2023/05/02 07:05:19;;;;;;;;;;;20.80;80.80;;;;;;5076172;28;19908;-66
2023/05/02 07:07:46;;;;;;;;;;;20.70;81.10;;;;;;5072593;28;19930;-66
2023/05/02 07:10:12;;;;;;;;;;;20.60;81.40;;;;;;5074907;28;19992;-66
2023/05/02 07:12:39;;;;;;;;;;;20.60;81.60;;;;;;5073251;28;19929;-66
2023/05/02 07:15:06;;;;;;;;;;;20.60;82.10;;;;;;5075300;28;20041;-68
2023/05/02 07:17:33;;;;;;;;;;;20.50;82.30;;;;;;5074541;28;20003;-70
2023/05/02 07:20:00;;;;;;;;;;;20.40;82.70;;;;;;5074086;28;19924;-67
2023/05/02 07:22:26;;;;;;;;;;;20.40;83.10;;;;;;5078242;28;19912;-67
2023/05/02 07:24:57;;;;;;;;;;;20.30;83.30;;;;;;5076281;28;19919;-67
2023/05/02 07:27:24;;;;;;;;;;;20.30;83.50;;;;;;5078326;28;19939;-67
2023/05/02 07:29:51;;;;;;;;;;;20.20;84.00;;;;;;5075665;28;20338;-67
2023/05/02 07:32:17;;;;;;;;;;;20.20;84.30;;;;;;5076361;28;20002;-66
2023/05/02 07:34:44;;;;;;;;;;;20.20;84.50;;;;;;5056803;28;20265;-67
2023/05/02 07:37:11;;;;;;;;;;;20.10;84.70;;;;;;5076327;28;19919;-67
2023/05/02 07:39:37;;;;;;;;;;;20.10;85.10;;;;;;5077680;28;19912;-68
2023/05/02 07:42:05;;;;;;;;;;;20.10;84.90;;;;;;5070878;28;19920;-66
2023/05/02 07:44:33;;;;;;;;;;;20.00;85.40;;;;;;5078555;28;20055;-66
2023/05/02 07:47:00;;;;;;;;;;;20.00;85.80;;;;;;5075526;28;20556;-66
2023/05/02 07:49:27;;;;;;;;;;;19.90;86.80;;;;;;5078812;28;19919;-67
2023/05/02 07:51:53;;;;;;;;;;;19.90;86.90;;;;;;5077094;28;19921;-69
2023/05/02 07:54:21;;;;;;;;;;;19.80;87.40;;;;;;5077758;28;20357;-65
2023/05/02 07:56:48;;;;;;;;;;;19.80;87.80;;;;;;5076616;28;19912;-67
2023/05/02 07:59:14;;;;;;;;;;;19.70;88.10;;;;;;5074413;28;20285;-67
2023/05/02 08:01:41;;;;;;;;;;;19.60;88.20;;;;;;5078434;28;19955;-67
2023/05/02 08:04:10;;;;;;;;;;;19.60;88.20;;;;;;5076827;28;20037;-67
2023/05/02 08:06:36;;;;;;;;;;;19.50;88.70;;;;;;5078607;28;19950;-68
2023/05/02 08:09:03;;;;;;;;;;;19.50;88.90;;;;;;5077566;28;19908;-66
2023/05/02 08:11:30;;;;;;;;;;;19.40;89.00;;;;;;5078181;28;19920;-67
2023/05/02 08:13:56;;;;;;;;;;;19.40;89.20;;;;;;5073169;28;19951;-67
2023/05/02 08:16:23;;;;;;;;;;;19.40;89.40;;;;;;5077661;28;19982;-66
2023/05/02 08:18:50;;;;;;;;;;;19.50;89.70;;;;;;5072786;28;19908;-69
2023/05/02 08:21:16;;;;;;;;;;;19.40;89.40;;;;;;5076866;28;19968;-68
2023/05/02 08:23:45;;;;;;;;;;;19.40;89.50;;;;;;5077397;28;19927;-67
2023/05/02 08:26:11;;;;;;;;;;;19.40;89.30;;;;;;5073645;28;19912;-67
2023/05/02 08:28:38;;;;;;;;;;;19.40;89.20;;;;;;5076210;28;19912;-69
2023/05/02 08:31:04;;;;;;;;;;;19.50;89.20;;;;;;5074785;28;20404;-68
2023/05/02 08:33:31;;;;;;;;;;;19.50;89.20;;;;;;5077889;28;19919;-67
2023/05/02 08:35:59;;;;;;;;;;;19.50;88.90;;;;;;5057038;28;19963;-68
2023/05/02 08:38:25;;;;;;;;;;;19.50;88.80;;;;;;5076301;28;19909;-67
2023/05/02 08:40:52;;;;;;;;;;;19.60;89.00;;;;;;5075749;28;19920;-67
2023/05/02 08:43:19;;;;;;;;;;;19.60;88.80;;;;;;5076525;28;19923;-66
2023/05/02 08:45:46;;;;;;;;;;;19.60;88.60;;;;;;5076331;28;19908;-66
2023/05/02 08:48:15;;;;;;;;;;;19.70;88.80;;;;;;5073806;28;19941;-68
2023/05/02 08:50:44;;;;;;;;;;;19.70;89.50;;;;;;5076468;28;19920;-68
2023/05/02 08:53:13;;;;;;;;;;;19.70;89.30;;;;;;5072549;28;19912;-68
2023/05/02 08:55:41;;;;;;;;;;;19.60;89.00;;;;;;5076445;28;19951;-68
2023/05/02 08:58:10;;;;;;;;;;;19.70;89.30;;;;;;5074890;28;19912;-68
2023/05/02 09:00:39;;;;;;;;;;;19.70;89.30;;;;;;5076849;28;19912;-69
2023/05/02 09:03:23;;;;;;;;;;;19.60;89.60;;;;;;5072673;28;19916;-67
2023/05/02 09:05:52;;;;;;;;;;;19.60;89.70;;;;;;5075952;28;20330;-66
2023/05/02 09:08:23;;;;;;;;;;;19.60;89.90;;;;;;5075722;28;19923;-67
2023/05/02 09:10:50;;;;;;;;;;;19.50;90.00;;;;;;5058187;28;20455;-67
2023/05/02 09:13:32;;;;;;;;;;;19.50;90.20;;;;;;5074601;28;20011;-67
2023/05/02 09:16:12;;;;;;;;;;;19.50;90.30;;;;;;5074711;28;20292;-68
2023/05/02 09:18:41;;;;;;;;;;;19.40;90.30;;;;;;5075599;28;20376;-67
2023/05/02 09:21:09;;;;;;;;;;;19.50;90.40;;;;;;5074692;28;20007;-67
2023/05/02 09:23:37;;;;;;;;;;;19.30;90.50;;;;;;5075415;28;19912;-68
2023/05/02 09:26:11;;;;;;;;;;;19.30;90.70;;;;;;5074363;28;19912;-66
2023/05/02 09:28:42;;;;;;;;;;;19.20;90.70;;;;;;5078231;28;19923;-68
2023/05/02 09:31:10;;;;;;;;;;;19.10;90.90;;;;;;5074521;28;19924;-68
2023/05/02 09:33:37;;;;;;;;;;;19.20;91.10;;;;;;5075601;28;19919;-66
2023/05/02 09:36:06;;;;;;;;;;;19.00;91.20;;;;;;5074438;28;20324;-69
2023/05/02 09:38:33;;;;;;;;;;;18.90;91.30;;;;;;5075877;28;20012;-69
2023/05/02 09:41:02;;;;;;;;;;;18.90;91.50;;;;;;5075432;28;20596;-68
2023/05/02 09:43:30;;;;;;;;;;;18.80;91.70;;;;;;5072957;28;19920;-68
2023/05/02 09:45:57;;;;;;;;;;;18.70;91.80;;;;;;5076041;28;19912;-67
2023/05/02 09:48:24;;;;;;;;;;;18.60;91.90;;;;;;5074829;28;19920;-67
2023/05/02 09:50:51;;;;;;;;;;;18.70;92.20;;;;;;5074183;28;19913;-69
2023/05/02 09:53:17;;;;;;;;;;;18.50;92.20;;;;;;5074427;28;20447;-68
2023/05/02 09:55:44;;;;;;;;;;;18.50;92.20;;;;;;5076474;28;19962;-68
2023/05/02 09:58:24;;;;;;;;;;;18.50;92.20;;;;;;5075082;28;19920;-67
2023/05/02 10:00:51;;;;;;;;;;;18.40;92.20;;;;;;5075989;28;20372;-68
2023/05/02 10:03:18;;;;;;;;;;;18.40;92.30;;;;;;5075812;28;20427;-67
2023/05/02 10:05:46;;;;;;;;;;;18.40;92.00;;;;;;5076385;28;19912;-69
2023/05/02 10:08:13;;;;;;;;;;;18.40;92.00;;;;;;5074819;28;20311;-68
2023/05/02 10:10:43;;;;;;;;;;;18.40;91.90;;;;;;5075762;28;19929;-67
2023/05/02 10:13:12;;;;;;;;;;;18.30;91.80;;;;;;5075026;28;19920;-66
2023/05/02 10:15:42;;;;;;;;;;;18.40;91.70;;;;;;5076819;28;19916;-68
2023/05/02 10:18:16;;;;;;;;;;;18.30;91.70;;;;;;5071758;28;19945;-67
2023/05/02 10:20:48;;;;;;;;;;;18.30;91.70;;;;;;5075000;28;19919;-67
2023/05/02 10:23:16;;;;;;;;;;;18.20;91.80;;;;;;5073524;28;19912;-67
2023/05/02 10:25:42;;;;;;;;;;;18.20;91.80;;;;;;5076393;28;19973;-67
2023/05/02 10:28:10;;;;;;;;;;;18.20;92.30;;;;;;5073915;28;19958;-68
2023/05/02 10:30:40;;;;;;;;;;;18.10;92.10;;;;;;5076727;28;19919;-66
2023/05/02 10:33:06;;;;;;;;;;;18.00;92.10;;;;;;5074773;28;19912;-69
2023/05/02 10:35:35;;;;;;;;;;;18.00;92.20;;;;;;5074943;28;19916;-67
2023/05/02 10:38:02;;;;;;;;;;;17.90;92.30;;;;;;5074852;28;19912;-67
2023/05/02 10:40:30;;;;;;;;;;;17.90;92.50;;;;;;5073846;28;19912;-68
2023/05/02 10:42:57;;;;;;;;;;;17.90;92.60;;;;;;5068530;28;20019;-68
2023/05/02 10:45:36;;;;;;;;;;;17.90;92.70;;;;;;5074357;28;20284;-69
2023/05/02 10:48:15;;;;;;;;;;;17.80;92.80;;;;;;5075215;28;20265;-68
2023/05/02 10:50:45;;;;;;;;;;;17.80;93.00;;;;;;5075771;28;20010;-67
2023/05/02 10:53:31;;;;;;;;;;;17.70;93.00;;;;;;5074728;28;19990;-67
2023/05/02 10:56:30;;;;;;;;;;;17.70;93.10;;;;;;5081073;28;19919;-66
2023/05/02 10:59:16;;;;;;;;;;;17.70;93.50;;;;;;5031183;28;19912;-65
2023/05/02 11:01:43;;;;;;;;;;;17.60;93.50;;;;;;5083222;28;19912;-68
2023/05/02 11:04:10;;;;;;;;;;;17.60;93.90;;;;;;5083278;28;19915;-67
2023/05/02 11:06:56;;;;;;;;;;;17.50;94.10;;;;;;5080752;28;19977;-67
2023/05/02 11:09:23;;;;;;;;;;;17.50;94.30;;;;;;5080133;28;19916;-67
2023/05/02 11:11:51;;;;;;;;;;;17.40;94.50;;;;;;5063792;28;19921;-67
2023/05/02 11:14:31;;;;;;;;;;;17.30;95.20;;;;;;5089466;28;19912;-67
2023/05/02 11:16:58;;;;;;;;;;;17.20;95.40;;;;;;5082368;28;19965;-67
2023/05/02 11:19:25;;;;;;;;;;;17.20;95.90;;;;;;5079533;28;19908;-68
2023/05/02 11:21:53;;;;;;;;;;;17.10;96.10;;;;;;5084188;28;20015;-67
2023/05/02 11:24:41;;;;;;;;;;;17.00;96.60;;;;;;5080552;28;20552;-67
2023/05/02 11:27:25;;;;;;;;;;;16.90;97.10;;;;;;5082096;28;20310;-67
2023/05/02 11:29:52;;;;;;;;;;;16.80;97.30;;;;;;5061964;28;19993;-67
2023/05/02 11:32:19;;;;;;;;;;;16.70;97.00;;;;;;5061707;28;19916;-67
2023/05/02 11:34:46;;;;;;;;;;;16.70;97.00;;;;;;5082496;28;20389;-67
2023/05/02 11:37:14;;;;;;;;;;;16.70;96.90;;;;;;5082641;28;19908;-66
2023/05/02 11:39:41;;;;;;;;;;;16.70;96.60;;;;;;5080953;28;19909;-66
2023/05/02 11:42:07;;;;;;;;;;;16.70;96.70;;;;;;5082457;28;19917;-68
2023/05/02 11:44:51;;;;;;;;;;;16.70;96.90;;;;;;5080246;28;19916;-66
2023/05/02 11:47:18;;;;;;;;;;;16.70;97.10;;;;;;5083164;28;20430;-65
2023/05/02 11:49:45;;;;;;;;;;;16.60;97.30;;;;;;5081696;28;19919;-65
2023/05/02 11:52:11;;;;;;;;;;;16.60;97.30;;;;;;5083044;28;19916;-65
2023/05/02 11:54:39;;;;;;;;;;;16.60;97.30;;;;;;5080033;28;20498;-66
2023/05/02 11:57:05;;;;;;;;;;;16.50;97.40;;;;;;5081974;28;19912;-66
2023/05/02 11:59:48;;;;;;;;;;;16.50;97.40;;;;;;5079430;28;19982;-68
2023/05/02 12:02:15;;;;;;;;;;;16.50;97.20;;;;;;5080404;28;19920;-68
2023/05/02 12:04:43;;;;;;;;;;;16.50;97.20;;;;;;5079380;28;19958;-65
2023/05/02 12:07:10;;;;;;;;;;;16.50;97.30;;;;;;5078178;28;19916;-68
2023/05/02 12:09:49;;;;;;;;;;;16.50;97.20;;;;;;5075815;28;19912;-65
2023/05/02 12:12:31;;;;;;;;;;;16.50;97.40;;;;;;5078214;28;20428;-66
2023/05/02 12:14:58;;;;;;;;;;;16.50;97.80;;;;;;5058267;28;19909;-66
2023/05/02 12:17:25;;;;;;;;;;;16.40;98.10;;;;;;5062354;28;20376;-67
2023/05/02 12:19:51;;;;;;;;;;;16.40;98.40;;;;;;5073413;28;20399;-65
2023/05/02 12:22:18;;;;;;;;;;;16.30;98.80;;;;;;5062695;28;19936;-64
2023/05/02 12:24:45;;;;;;;;;;;16.30;99.10;;;;;;5066300;28;19923;-66
2023/05/02 12:27:15;;;;;;;;;;;16.10;98.80;;;;;;5068390;28;20369;-68
2023/05/02 12:29:46;;;;;;;;;;;16.20;99.60;;;;;;5061373;28;19958;-66
2023/05/02 12:32:13;;;;;;;;;;;16.10;99.80;;;;;;5072833;28;20011;-66
2023/05/02 12:34:40;;;;;;;;;;;16.10;99.90;;;;;;5066055;28;20391;-64
2023/05/02 12:37:08;;;;;;;;;;;16.00;99.90;;;;;;5071266;28;20007;-67
2023/05/02 12:39:39;;;;;;;;;;;16.00;99.90;;;;;;5067784;28;19920;-64
2023/05/02 12:42:12;;;;;;;;;;;16.00;99.90;;;;;;5071208;28;19935;-65
2023/05/02 12:44:40;;;;;;;;;;;15.80;99.90;;;;;;5067463;28;19919;-64
2023/05/02 12:47:07;;;;;;;;;;;15.80;99.90;;;;;;5062476;28;19927;-65
2023/05/02 12:49:47;;;;;;;;;;;15.70;99.90;;;;;;5061295;28;19916;-68
2023/05/02 12:52:14;;;;;;;;;;;15.70;99.90;;;;;;5062333;28;19973;-67
2023/05/02 12:54:41;;;;;;;;;;;15.70;99.90;;;;;;5062662;28;20408;-65
2023/05/02 12:57:07;;;;;;;;;;;15.60;99.90;;;;;;5062350;28;19916;-64
2023/05/02 12:59:34;;;;;;;;;;;15.60;99.90;;;;;;5062283;28;21969;-67
2023/05/02 13:02:01;;;;;;;;;;;15.60;99.90;;;;;;5064203;28;20418;-68
2023/05/02 13:04:35;;;;;;;;;;;15.50;99.90;;;;;;5063186;28;20038;-68
2023/05/02 13:07:01;;;;;;;;;;;15.50;99.90;;;;;;5063038;28;20381;-67
2023/05/02 13:09:28;;;;;;;;;;;15.40;99.90;;;;;;5062514;28;19921;-67
2023/05/02 13:11:55;;;;;;;;;;;15.40;99.90;;;;;;5059172;28;20674;-68
2023/05/02 13:14:22;;;;;;;;;;;15.30;99.90;;;;;;5063710;28;19912;-68
2023/05/02 13:16:52;;;;;;;;;;;15.30;99.90;;;;;;5058964;28;19920;-67
2023/05/02 13:19:18;;;;;;;;;;;15.30;99.90;;;;;;5062136;28;19920;-66
2023/05/02 13:21:45;;;;;;;;;;;15.20;99.90;;;;;;5058781;28;19981;-65
2023/05/02 13:24:12;;;;;;;;;;;15.10;99.90;;;;;;5062042;28;19915;-65
2023/05/02 13:26:38;;;;;;;;;;;15.20;99.90;;;;;;5061439;28;19960;-69
2023/05/02 13:29:05;;;;;;;;;;;15.10;99.90;;;;;;5063765;28;20285;-69
2023/05/02 13:31:32;;;;;;;;;;;15.00;99.90;;;;;;5065043;28;20430;-68
2023/05/02 13:33:58;;;;;;;;;;;15.10;99.90;;;;;;5069030;28;19912;-69
2023/05/02 13:36:25;;;;;;;;;;;15.10;99.90;;;;;;5070333;28;19916;-69
2023/05/02 13:38:52;;;;;;;;;;;15.00;99.90;;;;;;5070493;28;19912;-69
2023/05/02 13:41:20;;;;;;;;;;;15.00;99.90;;;;;;5066024;28;19920;-69
2023/05/02 13:43:47;;;;;;;;;;;15.00;99.90;;;;;;5065763;28;19919;-69
2023/05/02 13:46:13;;;;;;;;;;;14.90;99.90;;;;;;5070607;28;19918;-66
2023/05/02 13:48:40;;;;;;;;;;;14.90;99.90;;;;;;5063883;28;20326;-68
2023/05/02 13:51:06;;;;;;;;;;;15.00;99.90;;;;;;5051074;28;19966;-69
2023/05/02 13:53:33;;;;;;;;;;;14.90;99.90;;;;;;5070967;28;19912;-64
2023/05/02 13:56:00;;;;;;;;;;;14.80;99.90;;;;;;5060545;28;19912;-68
2023/05/02 13:58:26;;;;;;;;;;;14.80;99.90;;;;;;5070293;28;20380;-67
2023/05/02 14:00:53;;;;;;;;;;;14.90;99.90;;;;;;5062940;28;19920;-66
2023/05/02 14:03:20;;;;;;;;;;;14.80;99.90;;;;;;5067142;28;19946;-68
2023/05/02 14:05:46;;;;;;;;;;;14.70;99.90;;;;;;5063995;28;20006;-68
2023/05/02 14:08:18;;;;;;;;;;;14.60;99.90;;;;;;5068404;28;19942;-68
2023/05/02 14:10:44;;;;;;;;;;;14.60;99.90;;;;;;5063681;28;19916;-69
2023/05/02 14:13:11;;;;;;;;;;;14.60;99.90;;;;;;5072928;28;19916;-67
2023/05/02 14:15:38;;;;;;;;;;;14.60;99.90;;;;;;5068220;28;19920;-66
2023/05/02 14:18:05;;;;;;;;;;;14.60;99.90;;;;;;5071260;28;19923;-69
2023/05/02 14:20:31;;;;;;;;;;;14.60;99.90;;;;;;5068492;28;19912;-68
2023/05/02 14:22:58;;;;;;;;;;;14.60;99.90;;;;;;5072500;28;19912;-68